sensor_id;sensor_type;location;lat;lon;timestamp;temperature;humidity
1129;DHT22;553;51.038;7.216;2023-07-02T00:02:26;17.00;99.90
1129;DHT22;553;51.038;7.216;2023-07-02T00:04:53;17.10;99.90
1129;DHT22;553;51.038;7.216;2023-07-02T00:07:20;17.00;99.90
1129;DHT22;553;51.038;7.216;2023-07-02T00:09:47;17.00;99.90
1129;DHT22;553;51.038;7.216;2023-07-02T00:12:14;16.90;99.90
1129;DHT22;553;51.038;7.216;2023-07-02T00:14:40;16.90;99.90
1129;DHT22;553;51.038;7.216;2023-07-02T00:17:07;16.80;99.90
1129;DHT22;553;51.038;7.216;2023-07-02T00:19:34;16.90;99.90
1129;DHT22;553;51.038;7.216;2023-07-02T00:22:01;16.90;99.90
1129;DHT22;553;51.038;7.216;2023-07-02T00:24:29;16.90;99.90
1129;DHT22;553;51.038;7.216;2023-07-02T00:26:56;16.90;99.90
1129;DHT22;553;51.038;7.216;2023-07-02T00:29:22;16.80;99.90
1129;DHT22;553;51.038;7.216;2023-07-02T00:31:49;16.90;99.90
1129;DHT22;553;51.038;7.216;2023-07-02T00:34:16;17.00;99.90
1129;DHT22;553;51.038;7.216;2023-07-02T00:36:43;16.90;99.90
1129;DHT22;553;51.038;7.216;2023-07-02T00:39:10;17.00;99.90
1129;DHT22;553;51.038;7.216;2023-07-02T00:41:38;16.90;99.90
1129;DHT22;553;51.038;7.216;2023-07-02T00:44:05;16.90;99.90
1129;DHT22;553;51.038;7.216;2023-07-02T00:46:32;16.90;99.90
1129;DHT22;553;51.038;7.216;2023-07-02T00:48:59;16.90;99.90
1129;DHT22;553;51.038;7.216;2023-07-02T00:51:28;16.90;99.90
1129;DHT22;553;51.038;7.216;2023-07-02T00:53:57;16.90;99.90
1129;DHT22;553;51.038;7.216;2023-07-02T00:56:25;16.90;99.90
1129;DHT22;553;51.038;7.216;2023-07-02T00:58:56;17.00;99.90
1129;DHT22;553;51.038;7.216;2023-07-02T01:01:26;17.00;99.90
1129;DHT22;553;51.038;7.216;2023-07-02T01:04:03;16.90;99.90
1129;DHT22;553;51.038;7.216;2023-07-02T01:06:34;16.80;99.90
1129;DHT22;553;51.038;7.216;2023-07-02T01:09:03;16.90;99.90
1129;DHT22;553;51.038;7.216;2023-07-02T01:11:46;16.80;99.90
1129;DHT22;553;51.038;7.216;2023-07-02T01:14:29;16.80;99.90
1129;DHT22;553;51.038;7.216;2023-07-02T01:16:57;16.70;99.90
1129;DHT22;553;51.038;7.216;2023-07-02T01:22:25;16.70;99.90
1129;DHT22;553;51.038;7.216;2023-07-02T01:24:53;16.70;99.90
1129;DHT22;553;51.038;7.216;2023-07-02T01:27:21;16.80;99.90
1129;DHT22;553;51.038;7.216;2023-07-02T01:29:52;16.80;99.90
1129;DHT22;553;51.038;7.216;2023-07-02T01:32:19;16.80;99.90
1129;DHT22;553;51.038;7.216;2023-07-02T01:34:47;16.80;99.90
1129;DHT22;553;51.038;7.216;2023-07-02T01:37:20;16.80;99.90
1129;DHT22;553;51.038;7.216;2023-07-02T01:39:47;16.80;99.90
1129;DHT22;553;51.038;7.216;2023-07-02T01:42:16;16.90;99.90
1129;DHT22;553;51.038;7.216;2023-07-02T01:44:44;16.80;99.90
1129;DHT22;553;51.038;7.216;2023-07-02T01:47:12;16.90;99.90
1129;DHT22;553;51.038;7.216;2023-07-02T01:49:39;16.90;99.90
1129;DHT22;553;51.038;7.216;2023-07-02T01:52:06;16.90;99.90
1129;DHT22;553;51.038;7.216;2023-07-02T01:54:34;16.80;99.90
1129;DHT22;553;51.038;7.216;2023-07-02T01:57:01;16.80;99.90
1129;DHT22;553;51.038;7.216;2023-07-02T01:59:28;16.80;99.90
1129;DHT22;553;51.038;7.216;2023-07-02T02:01:54;16.80;99.90
1129;DHT22;553;51.038;7.216;2023-07-02T02:04:21;16.80;99.90
1129;DHT22;553;51.038;7.216;2023-07-02T02:06:48;16.90;99.90
1129;DHT22;553;51.038;7.216;2023-07-02T02:09:15;16.80;99.90
1129;DHT22;553;51.038;7.216;2023-07-02T02:11:44;16.80;99.90
1129;DHT22;553;51.038;7.216;2023-07-02T02:14:11;16.70;99.90
1129;DHT22;553;51.038;7.216;2023-07-02T02:16:38;16.60;99.90
1129;DHT22;553;51.038;7.216;2023-07-02T02:19:06;16.70;99.90
1129;DHT22;553;51.038;7.216;2023-07-02T02:21:33;16.60;99.90
1129;DHT22;553;51.038;7.216;2023-07-02T02:23:59;16.50;99.90
1129;DHT22;553;51.038;7.216;2023-07-02T02:26:26;16.60;99.90
1129;DHT22;553;51.038;7.216;2023-07-02T02:28:53;16.50;99.90
1129;DHT22;553;51.038;7.216;2023-07-02T02:31:20;16.50;99.90
1129;DHT22;553;51.038;7.216;2023-07-02T02:33:47;16.50;99.90
1129;DHT22;553;51.038;7.216;2023-07-02T02:36:15;16.50;99.90
1129;DHT22;553;51.038;7.216;2023-07-02T02:38:44;16.50;99.90
1129;DHT22;553;51.038;7.216;2023-07-02T02:41:11;16.40;99.90
1129;DHT22;553;51.038;7.216;2023-07-02T02:43:42;16.40;99.90
1129;DHT22;553;51.038;7.216;2023-07-02T02:46:11;16.40;99.90
1129;DHT22;553;51.038;7.216;2023-07-02T02:48:38;16.30;99.90
1129;DHT22;553;51.038;7.216;2023-07-02T02:51:05;16.30;99.90
1129;DHT22;553;51.038;7.216;2023-07-02T02:53:32;16.30;99.90
1129;DHT22;553;51.038;7.216;2023-07-02T02:55:59;16.40;99.90
1129;DHT22;553;51.038;7.216;2023-07-02T02:58:26;16.40;99.90
1129;DHT22;553;51.038;7.216;2023-07-02T03:00:54;16.40;99.90
1129;DHT22;553;51.038;7.216;2023-07-02T03:03:22;16.30;99.90
1129;DHT22;553;51.038;7.216;2023-07-02T03:05:51;16.30;99.90
1129;DHT22;553;51.038;7.216;2023-07-02T03:08:17;16.40;99.90
1129;DHT22;553;51.038;7.216;2023-07-02T03:10:44;16.40;99.90
1129;DHT22;553;51.038;7.216;2023-07-02T03:13:11;16.30;99.90
1129;DHT22;553;51.038;7.216;2023-07-02T03:15:38;16.40;99.90
1129;DHT22;553;51.038;7.216;2023-07-02T03:18:05;16.40;99.90
1129;DHT22;553;51.038;7.216;2023-07-02T03:20:32;16.40;99.90
1129;DHT22;553;51.038;7.216;2023-07-02T03:22:59;16.40;99.90
1129;DHT22;553;51.038;7.216;2023-07-02T03:25:26;16.40;99.90
1129;DHT22;553;51.038;7.216;2023-07-02T03:27:53;16.40;99.90
1129;DHT22;553;51.038;7.216;2023-07-02T03:30:20;16.40;99.90
1129;DHT22;553;51.038;7.216;2023-07-02T03:32:46;16.30;99.90
1129;DHT22;553;51.038;7.216;2023-07-02T03:35:13;16.30;99.90
1129;DHT22;553;51.038;7.216;2023-07-02T03:37:40;16.30;99.90
1129;DHT22;553;51.038;7.216;2023-07-02T03:40:10;16.30;99.90
1129;DHT22;553;51.038;7.216;2023-07-02T03:42:37;16.30;99.90
1129;DHT22;553;51.038;7.216;2023-07-02T03:45:04;16.20;99.90
1129;DHT22;553;51.038;7.216;2023-07-02T03:47:31;16.30;99.90
1129;DHT22;553;51.038;7.216;2023-07-02T03:49:58;16.30;99.90
1129;DHT22;553;51.038;7.216;2023-07-02T03:52:25;16.30;99.90
1129;DHT22;553;51.038;7.216;2023-07-02T03:54:51;16.30;99.90
1129;DHT22;553;51.038;7.216;2023-07-02T03:57:18;16.40;99.90
1129;DHT22;553;51.038;7.216;2023-07-02T03:59:46;16.40;99.90
1129;DHT22;553;51.038;7.216;2023-07-02T04:02:13;16.40;99.90
1129;DHT22;553;51.038;7.216;2023-07-02T04:04:39;16.30;99.90
1129;DHT22;553;51.038;7.216;2023-07-02T04:07:06;16.20;99.90
1129;DHT22;553;51.038;7.216;2023-07-02T04:09:33;16.30;99.90
1129;DHT22;553;51.038;7.216;2023-07-02T04:12:00;16.30;99.90
1129;DHT22;553;51.038;7.216;2023-07-02T04:14:28;16.30;99.90
1129;DHT22;553;51.038;7.216;2023-07-02T04:16:54;16.30;99.90
1129;DHT22;553;51.038;7.216;2023-07-02T04:19:21;16.30;99.90
1129;DHT22;553;51.038;7.216;2023-07-02T04:21:48;16.30;99.90
1129;DHT22;553;51.038;7.216;2023-07-02T04:24:16;16.30;99.90
1129;DHT22;553;51.038;7.216;2023-07-02T04:26:43;16.30;99.90
1129;DHT22;553;51.038;7.216;2023-07-02T04:29:31;16.30;99.90
1129;DHT22;553;51.038;7.216;2023-07-02T04:31:57;16.30;99.90
1129;DHT22;553;51.038;7.216;2023-07-02T04:34:24;16.30;99.90
1129;DHT22;553;51.038;7.216;2023-07-02T04:36:51;16.40;99.90
1129;DHT22;553;51.038;7.216;2023-07-02T04:39:19;16.30;99.90
1129;DHT22;553;51.038;7.216;2023-07-02T04:41:46;16.30;99.90
1129;DHT22;553;51.038;7.216;2023-07-02T04:44:15;16.30;99.90
1129;DHT22;553;51.038;7.216;2023-07-02T04:46:42;16.40;99.90
1129;DHT22;553;51.038;7.216;2023-07-02T04:49:09;16.40;99.90
1129;DHT22;553;51.038;7.216;2023-07-02T04:51:36;16.40;99.90
1129;DHT22;553;51.038;7.216;2023-07-02T04:54:02;16.30;99.90
1129;DHT22;553;51.038;7.216;2023-07-02T04:56:29;16.30;99.90
1129;DHT22;553;51.038;7.216;2023-07-02T04:58:56;16.30;99.90
1129;DHT22;553;51.038;7.216;2023-07-02T05:01:22;16.30;99.90
1129;DHT22;553;51.038;7.216;2023-07-02T05:03:49;16.30;99.90
1129;DHT22;553;51.038;7.216;2023-07-02T05:06:16;16.30;99.90
1129;DHT22;553;51.038;7.216;2023-07-02T05:08:43;16.20;99.90
1129;DHT22;553;51.038;7.216;2023-07-02T05:11:10;16.30;99.90
1129;DHT22;553;51.038;7.216;2023-07-02T05:13:37;16.30;99.90
1129;DHT22;553;51.038;7.216;2023-07-02T05:16:04;16.40;99.90
1129;DHT22;553;51.038;7.216;2023-07-02T05:18:31;16.30;99.90
1129;DHT22;553;51.038;7.216;2023-07-02T05:21:00;16.30;99.90
1129;DHT22;553;51.038;7.216;2023-07-02T05:23:27;16.30;99.90
1129;DHT22;553;51.038;7.216;2023-07-02T05:25:54;16.30;99.90
1129;DHT22;553;51.038;7.216;2023-07-02T05:28:21;16.30;99.90
1129;DHT22;553;51.038;7.216;2023-07-02T05:30:47;16.20;99.90
1129;DHT22;553;51.038;7.216;2023-07-02T05:33:14;16.30;99.90
1129;DHT22;553;51.038;7.216;2023-07-02T05:35:41;16.30;99.90
1129;DHT22;553;51.038;7.216;2023-07-02T05:38:08;16.30;99.90
1129;DHT22;553;51.038;7.216;2023-07-02T05:40:35;16.30;99.90
1129;DHT22;553;51.038;7.216;2023-07-02T05:43:01;16.40;99.90
1129;DHT22;553;51.038;7.216;2023-07-02T05:45:28;16.40;99.90
1129;DHT22;553;51.038;7.216;2023-07-02T05:47:55;16.50;99.90
1129;DHT22;553;51.038;7.216;2023-07-02T05:50:23;16.50;99.90
1129;DHT22;553;51.038;7.216;2023-07-02T05:52:50;16.50;99.90
1129;DHT22;553;51.038;7.216;2023-07-02T05:55:17;16.50;99.90
1129;DHT22;553;51.038;7.216;2023-07-02T05:57:43;16.50;99.90
1129;DHT22;553;51.038;7.216;2023-07-02T06:00:11;16.60;99.90
1129;DHT22;553;51.038;7.216;2023-07-02T06:02:38;16.60;99.90
1129;DHT22;553;51.038;7.216;2023-07-02T06:05:05;16.60;99.90
1129;DHT22;553;51.038;7.216;2023-07-02T06:07:32;16.70;99.90
1129;DHT22;553;51.038;7.216;2023-07-02T06:09:59;16.70;99.90
1129;DHT22;553;51.038;7.216;2023-07-02T06:12:26;16.70;99.90
1129;DHT22;553;51.038;7.216;2023-07-02T06:14:52;16.80;99.90
1129;DHT22;553;51.038;7.216;2023-07-02T06:17:19;16.90;99.90
1129;DHT22;553;51.038;7.216;2023-07-02T06:19:48;17.00;99.90
1129;DHT22;553;51.038;7.216;2023-07-02T06:22:15;17.10;99.90
1129;DHT22;553;51.038;7.216;2023-07-02T06:24:41;17.10;99.90
1129;DHT22;553;51.038;7.216;2023-07-02T06:27:08;17.10;99.90
1129;DHT22;553;51.038;7.216;2023-07-02T06:29:35;17.10;99.90
1129;DHT22;553;51.038;7.216;2023-07-02T06:32:02;17.00;99.90
1129;DHT22;553;51.038;7.216;2023-07-02T06:34:28;17.10;99.90
1129;DHT22;553;51.038;7.216;2023-07-02T06:36:55;17.10;99.90
1129;DHT22;553;51.038;7.216;2023-07-02T06:39:22;17.10;99.90
1129;DHT22;553;51.038;7.216;2023-07-02T06:41:49;17.10;99.90
1129;DHT22;553;51.038;7.216;2023-07-02T06:44:17;17.20;99.90
1129;DHT22;553;51.038;7.216;2023-07-02T06:46:46;17.30;99.90
1129;DHT22;553;51.038;7.216;2023-07-02T06:49:13;17.30;99.90
1129;DHT22;553;51.038;7.216;2023-07-02T06:51:40;17.40;99.90
1129;DHT22;553;51.038;7.216;2023-07-02T06:54:08;17.50;99.90
1129;DHT22;553;51.038;7.216;2023-07-02T06:56:34;17.60;99.90
1129;DHT22;553;51.038;7.216;2023-07-02T06:59:01;17.60;99.90
1129;DHT22;553;51.038;7.216;2023-07-02T07:01:28;17.70;99.90
1129;DHT22;553;51.038;7.216;2023-07-02T07:03:55;17.70;99.90
1129;DHT22;553;51.038;7.216;2023-07-02T07:06:22;17.80;99.90
1129;DHT22;553;51.038;7.216;2023-07-02T07:08:49;17.80;99.80
1129;DHT22;553;51.038;7.216;2023-07-02T07:11:15;17.80;99.90
1129;DHT22;553;51.038;7.216;2023-07-02T07:13:42;17.90;99.20
1129;DHT22;553;51.038;7.216;2023-07-02T07:16:10;17.90;99.00
1129;DHT22;553;51.038;7.216;2023-07-02T07:18:37;18.00;99.10
1129;DHT22;553;51.038;7.216;2023-07-02T07:21:04;18.20;97.80
1129;DHT22;553;51.038;7.216;2023-07-02T07:23:31;18.20;98.30
1129;DHT22;553;51.038;7.216;2023-07-02T07:25:58;18.20;97.40
1129;DHT22;553;51.038;7.216;2023-07-02T07:28:24;18.20;97.10
1129;DHT22;553;51.038;7.216;2023-07-02T07:30:51;18.20;96.50
1129;DHT22;553;51.038;7.216;2023-07-02T07:33:18;18.40;96.20
1129;DHT22;553;51.038;7.216;2023-07-02T07:35:45;18.50;96.10
1129;DHT22;553;51.038;7.216;2023-07-02T07:38:13;18.60;95.50
1129;DHT22;553;51.038;7.216;2023-07-02T07:40:42;18.70;95.80
1129;DHT22;553;51.038;7.216;2023-07-02T07:43:09;18.90;95.50
1129;DHT22;553;51.038;7.216;2023-07-02T07:45:36;19.00;95.40
1129;DHT22;553;51.038;7.216;2023-07-02T07:48:06;18.90;94.90
1129;DHT22;553;51.038;7.216;2023-07-02T07:50:33;18.90;95.70
1129;DHT22;553;51.038;7.216;2023-07-02T07:53:00;18.90;95.50
1129;DHT22;553;51.038;7.216;2023-07-02T07:55:27;18.90;94.60
1129;DHT22;553;51.038;7.216;2023-07-02T07:57:53;18.90;93.70
1129;DHT22;553;51.038;7.216;2023-07-02T08:00:20;18.90;93.30
1129;DHT22;553;51.038;7.216;2023-07-02T08:02:47;18.90;93.70
1129;DHT22;553;51.038;7.216;2023-07-02T08:05:14;19.10;93.70
1129;DHT22;553;51.038;7.216;2023-07-02T08:07:41;19.20;94.30
1129;DHT22;553;51.038;7.216;2023-07-02T08:10:09;19.30;92.00
1129;DHT22;553;51.038;7.216;2023-07-02T08:12:36;19.20;92.80
1129;DHT22;553;51.038;7.216;2023-07-02T08:15:03;19.20;91.40
1129;DHT22;553;51.038;7.216;2023-07-02T08:17:30;19.20;91.40
1129;DHT22;553;51.038;7.216;2023-07-02T08:19:57;19.10;92.20
1129;DHT22;553;51.038;7.216;2023-07-02T08:22:24;19.20;92.20
1129;DHT22;553;51.038;7.216;2023-07-02T08:24:51;19.20;90.20
1129;DHT22;553;51.038;7.216;2023-07-02T08:27:18;19.00;91.40
1129;DHT22;553;51.038;7.216;2023-07-02T08:29:47;19.10;91.50
1129;DHT22;553;51.038;7.216;2023-07-02T08:32:14;19.10;90.80
1129;DHT22;553;51.038;7.216;2023-07-02T08:34:41;19.10;90.90
1129;DHT22;553;51.038;7.216;2023-07-02T08:37:08;19.10;91.20
1129;DHT22;553;51.038;7.216;2023-07-02T08:39:36;19.20;91.00
1129;DHT22;553;51.038;7.216;2023-07-02T08:42:04;19.40;90.80
1129;DHT22;553;51.038;7.216;2023-07-02T08:44:31;19.40;89.90
1129;DHT22;553;51.038;7.216;2023-07-02T08:46:58;19.40;90.80
1129;DHT22;553;51.038;7.216;2023-07-02T08:49:25;19.40;90.50
1129;DHT22;553;51.038;7.216;2023-07-02T08:51:51;19.40;90.60
1129;DHT22;553;51.038;7.216;2023-07-02T08:54:18;19.50;90.60
1129;DHT22;553;51.038;7.216;2023-07-02T08:56:46;19.60;90.90
1129;DHT22;553;51.038;7.216;2023-07-02T08:59:13;19.70;89.60
1129;DHT22;553;51.038;7.216;2023-07-02T09:01:47;19.70;89.30
1129;DHT22;553;51.038;7.216;2023-07-02T09:04:25;19.90;89.10
1129;DHT22;553;51.038;7.216;2023-07-02T09:07:09;20.10;88.70
1129;DHT22;553;51.038;7.216;2023-07-02T09:09:49;20.00;87.90
1129;DHT22;553;51.038;7.216;2023-07-02T09:12:30;19.90;88.90
1129;DHT22;553;51.038;7.216;2023-07-02T09:15:02;19.90;86.30
1129;DHT22;553;51.038;7.216;2023-07-02T09:17:33;19.80;84.90
1129;DHT22;553;51.038;7.216;2023-07-02T09:20:01;19.70;85.50
1129;DHT22;553;51.038;7.216;2023-07-02T09:22:29;19.80;85.70
1129;DHT22;553;51.038;7.216;2023-07-02T09:25:00;19.90;86.50
1129;DHT22;553;51.038;7.216;2023-07-02T09:27:37;19.80;86.10
1129;DHT22;553;51.038;7.216;2023-07-02T09:30:10;19.80;86.80
1129;DHT22;553;51.038;7.216;2023-07-02T09:32:39;19.80;87.00
1129;DHT22;553;51.038;7.216;2023-07-02T09:35:07;19.80;87.10
1129;DHT22;553;51.038;7.216;2023-07-02T09:37:33;19.90;87.00
1129;DHT22;553;51.038;7.216;2023-07-02T09:40:00;19.90;86.60
1129;DHT22;553;51.038;7.216;2023-07-02T09:42:28;19.90;86.30
1129;DHT22;553;51.038;7.216;2023-07-02T09:44:55;19.90;86.60
1129;DHT22;553;51.038;7.216;2023-07-02T09:47:24;19.90;86.10
1129;DHT22;553;51.038;7.216;2023-07-02T09:52:24;19.90;85.90
1129;DHT22;553;51.038;7.216;2023-07-02T09:54:52;19.90;85.70
1129;DHT22;553;51.038;7.216;2023-07-02T09:57:19;20.00;85.70
1129;DHT22;553;51.038;7.216;2023-07-02T09:59:46;20.10;86.00
1129;DHT22;553;51.038;7.216;2023-07-02T10:02:13;20.00;85.20
1129;DHT22;553;51.038;7.216;2023-07-02T10:04:45;20.10;85.30
1129;DHT22;553;51.038;7.216;2023-07-02T10:07:13;20.20;85.50
1129;DHT22;553;51.038;7.216;2023-07-02T10:09:52;20.40;85.70
1129;DHT22;553;51.038;7.216;2023-07-02T10:14:51;20.30;84.60
1129;DHT22;553;51.038;7.216;2023-07-02T10:17:29;20.30;85.40
1129;DHT22;553;51.038;7.216;2023-07-02T10:20:07;20.20;85.00
1129;DHT22;553;51.038;7.216;2023-07-02T10:22:47;20.20;85.80
1129;DHT22;553;51.038;7.216;2023-07-02T10:25:30;20.10;85.40
1129;DHT22;553;51.038;7.216;2023-07-02T10:27:58;20.00;85.70
1129;DHT22;553;51.038;7.216;2023-07-02T10:30:35;20.10;86.00
1129;DHT22;553;51.038;7.216;2023-07-02T10:33:15;20.00;85.70
1129;DHT22;553;51.038;7.216;2023-07-02T10:35:44;19.90;85.90
1129;DHT22;553;51.038;7.216;2023-07-02T10:38:14;19.90;86.10
1129;DHT22;553;51.038;7.216;2023-07-02T10:40:43;20.00;86.00
1129;DHT22;553;51.038;7.216;2023-07-02T10:43:10;20.00;85.60
1129;DHT22;553;51.038;7.216;2023-07-02T10:45:37;20.00;86.30
1129;DHT22;553;51.038;7.216;2023-07-02T10:48:08;20.20;86.10
1129;DHT22;553;51.038;7.216;2023-07-02T10:50:35;20.30;85.90
1129;DHT22;553;51.038;7.216;2023-07-02T10:53:03;20.40;86.20
1129;DHT22;553;51.038;7.216;2023-07-02T10:55:30;20.30;85.20
1129;DHT22;553;51.038;7.216;2023-07-02T10:58:05;20.10;84.40
1129;DHT22;553;51.038;7.216;2023-07-02T11:00:32;20.20;84.80
1129;DHT22;553;51.038;7.216;2023-07-02T11:03:00;20.30;83.50
1129;DHT22;553;51.038;7.216;2023-07-02T11:05:27;20.20;83.10
1129;DHT22;553;51.038;7.216;2023-07-02T11:08:08;20.20;82.90
1129;DHT22;553;51.038;7.216;2023-07-02T11:10:35;20.20;83.80
1129;DHT22;553;51.038;7.216;2023-07-02T11:13:18;20.30;83.50
1129;DHT22;553;51.038;7.216;2023-07-02T11:15:46;20.50;84.90
1129;DHT22;553;51.038;7.216;2023-07-02T11:18:16;20.80;83.50
1129;DHT22;553;51.038;7.216;2023-07-02T11:20:44;20.90;83.10
1129;DHT22;553;51.038;7.216;2023-07-02T11:23:22;20.90;83.40
1129;DHT22;553;51.038;7.216;2023-07-02T11:25:59;20.80;82.90
1129;DHT22;553;51.038;7.216;2023-07-02T11:28:28;20.90;83.50
1129;DHT22;553;51.038;7.216;2023-07-02T11:30:55;20.90;84.20
1129;DHT22;553;51.038;7.216;2023-07-02T11:33:39;20.90;84.70
1129;DHT22;553;51.038;7.216;2023-07-02T11:36:08;20.90;83.60
1129;DHT22;553;51.038;7.216;2023-07-02T11:38:46;20.70;80.50
1129;DHT22;553;51.038;7.216;2023-07-02T11:41:13;20.80;81.00
1129;DHT22;553;51.038;7.216;2023-07-02T11:43:40;20.90;79.90
1129;DHT22;553;51.038;7.216;2023-07-02T11:46:06;21.00;79.40
1129;DHT22;553;51.038;7.216;2023-07-02T11:48:33;21.10;78.90
1129;DHT22;553;51.038;7.216;2023-07-02T11:51:00;21.20;77.60
1129;DHT22;553;51.038;7.216;2023-07-02T11:53:27;21.30;77.80
1129;DHT22;553;51.038;7.216;2023-07-02T11:55:53;21.20;81.10
1129;DHT22;553;51.038;7.216;2023-07-02T11:58:20;21.10;82.80
1129;DHT22;553;51.038;7.216;2023-07-02T12:00:47;20.90;84.90
1129;DHT22;553;51.038;7.216;2023-07-02T12:03:14;20.70;85.10
1129;DHT22;553;51.038;7.216;2023-07-02T12:05:41;20.50;85.40
1129;DHT22;553;51.038;7.216;2023-07-02T12:08:07;20.30;87.50
1129;DHT22;553;51.038;7.216;2023-07-02T12:10:35;20.20;88.50
1129;DHT22;553;51.038;7.216;2023-07-02T12:13:04;20.00;87.00
1129;DHT22;553;51.038;7.216;2023-07-02T12:15:31;20.00;86.20
1129;DHT22;553;51.038;7.216;2023-07-02T12:17:58;20.00;85.00
1129;DHT22;553;51.038;7.216;2023-07-02T12:20:25;20.10;84.90
1129;DHT22;553;51.038;7.216;2023-07-02T12:22:51;20.40;85.00
1129;DHT22;553;51.038;7.216;2023-07-02T12:25:18;20.60;85.30
1129;DHT22;553;51.038;7.216;2023-07-02T12:27:45;20.80;81.40
1129;DHT22;553;51.038;7.216;2023-07-02T12:30:12;21.10;81.70
1129;DHT22;553;51.038;7.216;2023-07-02T12:32:44;21.30;79.10
1129;DHT22;553;51.038;7.216;2023-07-02T12:35:11;21.30;80.20
1129;DHT22;553;51.038;7.216;2023-07-02T12:37:45;21.50;80.10
1129;DHT22;553;51.038;7.216;2023-07-02T12:40:12;21.60;78.60
1129;DHT22;553;51.038;7.216;2023-07-02T12:42:44;21.60;80.00
1129;DHT22;553;51.038;7.216;2023-07-02T12:45:12;21.60;77.10
1129;DHT22;553;51.038;7.216;2023-07-02T12:47:40;21.40;78.50
1129;DHT22;553;51.038;7.216;2023-07-02T12:50:08;21.50;78.70
1129;DHT22;553;51.038;7.216;2023-07-02T12:52:35;21.60;77.70
1129;DHT22;553;51.038;7.216;2023-07-02T12:55:02;21.60;78.50
1129;DHT22;553;51.038;7.216;2023-07-02T12:57:29;21.60;77.70
1129;DHT22;553;51.038;7.216;2023-07-02T12:59:56;21.50;75.90
1129;DHT22;553;51.038;7.216;2023-07-02T13:02:23;21.40;74.70
1129;DHT22;553;51.038;7.216;2023-07-02T13:04:50;21.40;74.70
1129;DHT22;553;51.038;7.216;2023-07-02T13:07:18;21.60;74.20
1129;DHT22;553;51.038;7.216;2023-07-02T13:09:45;21.60;73.20
1129;DHT22;553;51.038;7.216;2023-07-02T13:12:12;21.70;74.10
1129;DHT22;553;51.038;7.216;2023-07-02T13:14:38;21.80;72.30
1129;DHT22;553;51.038;7.216;2023-07-02T13:17:05;21.90;73.40
1129;DHT22;553;51.038;7.216;2023-07-02T13:19:32;22.00;72.30
1129;DHT22;553;51.038;7.216;2023-07-02T13:22:00;21.90;72.50
1129;DHT22;553;51.038;7.216;2023-07-02T13:24:32;22.00;73.50
1129;DHT22;553;51.038;7.216;2023-07-02T13:27:02;22.20;73.00
1129;DHT22;553;51.038;7.216;2023-07-02T13:29:31;22.40;73.70
1129;DHT22;553;51.038;7.216;2023-07-02T13:31:57;22.40;71.80
1129;DHT22;553;51.038;7.216;2023-07-02T13:34:24;22.40;72.30
1129;DHT22;553;51.038;7.216;2023-07-02T13:36:51;22.40;71.60
1129;DHT22;553;51.038;7.216;2023-07-02T13:39:18;22.30;71.80
1129;DHT22;553;51.038;7.216;2023-07-02T13:41:45;22.20;72.20
1129;DHT22;553;51.038;7.216;2023-07-02T13:44:12;22.30;73.00
1129;DHT22;553;51.038;7.216;2023-07-02T13:46:38;22.40;71.80
1129;DHT22;553;51.038;7.216;2023-07-02T13:49:05;22.40;72.50
1129;DHT22;553;51.038;7.216;2023-07-02T13:51:32;22.40;73.30
1129;DHT22;553;51.038;7.216;2023-07-02T13:53:59;22.50;73.20
1129;DHT22;553;51.038;7.216;2023-07-02T13:56:26;22.70;71.90
1129;DHT22;553;51.038;7.216;2023-07-02T14:01:23;22.40;71.50
1129;DHT22;553;51.038;7.216;2023-07-02T14:03:50;22.40;72.00
1129;DHT22;553;51.038;7.216;2023-07-02T14:06:18;22.60;72.40
1129;DHT22;553;51.038;7.216;2023-07-02T14:08:45;22.70;71.90
1129;DHT22;553;51.038;7.216;2023-07-02T14:11:15;22.60;71.70
1129;DHT22;553;51.038;7.216;2023-07-02T14:13:41;22.70;72.20
1129;DHT22;553;51.038;7.216;2023-07-02T14:16:08;22.40;71.60
1129;DHT22;553;51.038;7.216;2023-07-02T14:18:35;22.50;72.60
1129;DHT22;553;51.038;7.216;2023-07-02T14:21:02;22.30;72.10
1129;DHT22;553;51.038;7.216;2023-07-02T14:23:30;22.30;73.10
1129;DHT22;553;51.038;7.216;2023-07-02T14:25:56;22.30;73.50
1129;DHT22;553;51.038;7.216;2023-07-02T14:28:23;22.30;73.80
1129;DHT22;553;51.038;7.216;2023-07-02T14:30:59;22.50;74.00
1129;DHT22;553;51.038;7.216;2023-07-02T14:33:27;22.50;74.10
1129;DHT22;553;51.038;7.216;2023-07-02T14:35:55;22.50;73.40
1129;DHT22;553;51.038;7.216;2023-07-02T14:38:22;22.40;73.50
1129;DHT22;553;51.038;7.216;2023-07-02T14:40:49;22.20;74.40
1129;DHT22;553;51.038;7.216;2023-07-02T14:43:17;22.30;74.40
1129;DHT22;553;51.038;7.216;2023-07-02T14:45:52;22.40;73.00
1129;DHT22;553;51.038;7.216;2023-07-02T14:48:19;22.60;73.10
1129;DHT22;553;51.038;7.216;2023-07-02T14:50:51;22.60;72.70
1129;DHT22;553;51.038;7.216;2023-07-02T14:53:19;22.60;73.30
1129;DHT22;553;51.038;7.216;2023-07-02T14:55:47;22.70;73.50
1129;DHT22;553;51.038;7.216;2023-07-02T14:58:16;22.60;72.50
1129;DHT22;553;51.038;7.216;2023-07-02T15:00:48;22.70;73.00
1129;DHT22;553;51.038;7.216;2023-07-02T15:03:15;22.60;72.10
1129;DHT22;553;51.038;7.216;2023-07-02T15:05:44;22.50;72.30
1129;DHT22;553;51.038;7.216;2023-07-02T15:08:11;22.60;72.20
1129;DHT22;553;51.038;7.216;2023-07-02T15:10:40;22.50;71.60
1129;DHT22;553;51.038;7.216;2023-07-02T15:13:07;22.40;72.70
1129;DHT22;553;51.038;7.216;2023-07-02T15:15:34;22.40;72.50
1129;DHT22;553;51.038;7.216;2023-07-02T15:18:06;22.40;72.70
1129;DHT22;553;51.038;7.216;2023-07-02T15:20:34;22.50;73.80
1129;DHT22;553;51.038;7.216;2023-07-02T15:23:01;22.50;74.00
1129;DHT22;553;51.038;7.216;2023-07-02T15:25:30;22.60;73.50
1129;DHT22;553;51.038;7.216;2023-07-02T15:27:57;22.50;73.00
1129;DHT22;553;51.038;7.216;2023-07-02T15:30:24;22.30;73.80
1129;DHT22;553;51.038;7.216;2023-07-02T15:32:51;22.10;74.20
1129;DHT22;553;51.038;7.216;2023-07-02T15:35:17;22.20;74.80
1129;DHT22;553;51.038;7.216;2023-07-02T15:37:44;22.00;74.60
1129;DHT22;553;51.038;7.216;2023-07-02T15:40:11;22.00;75.40
1129;DHT22;553;51.038;7.216;2023-07-02T15:42:38;22.10;74.60
1129;DHT22;553;51.038;7.216;2023-07-02T15:45:06;22.10;74.50
1129;DHT22;553;51.038;7.216;2023-07-02T15:47:34;22.00;75.30
1129;DHT22;553;51.038;7.216;2023-07-02T15:50:01;22.10;75.40
1129;DHT22;553;51.038;7.216;2023-07-02T15:52:27;22.20;75.00
1129;DHT22;553;51.038;7.216;2023-07-02T15:54:54;22.10;74.90
1129;DHT22;553;51.038;7.216;2023-07-02T15:57:21;22.10;75.20
1129;DHT22;553;51.038;7.216;2023-07-02T15:59:48;22.20;76.00
1129;DHT22;553;51.038;7.216;2023-07-02T16:02:14;22.20;75.00
1129;DHT22;553;51.038;7.216;2023-07-02T16:04:41;22.00;75.60
1129;DHT22;553;51.038;7.216;2023-07-02T16:07:12;22.00;75.90
1129;DHT22;553;51.038;7.216;2023-07-02T16:09:40;22.10;76.10
1129;DHT22;553;51.038;7.216;2023-07-02T16:12:07;22.10;75.70
1129;DHT22;553;51.038;7.216;2023-07-02T16:14:35;22.20;75.70
1129;DHT22;553;51.038;7.216;2023-07-02T16:17:05;22.10;75.20
1129;DHT22;553;51.038;7.216;2023-07-02T16:19:33;22.10;74.90
1129;DHT22;553;51.038;7.216;2023-07-02T16:22:00;22.20;75.50
1129;DHT22;553;51.038;7.216;2023-07-02T16:24:30;22.10;75.70
1129;DHT22;553;51.038;7.216;2023-07-02T16:26:57;22.20;75.70
1129;DHT22;553;51.038;7.216;2023-07-02T16:29:26;22.20;76.00
1129;DHT22;553;51.038;7.216;2023-07-02T16:31:56;22.20;75.10
1129;DHT22;553;51.038;7.216;2023-07-02T16:34:26;22.00;75.30